Varna, Illinois
Current Conditions -  °F | °C
As of 3:35 PM on Thursday 23 Oct 2014 (Local Time) from KC75 Reporting Station
Scattered Clouds Scattered Clouds  
Wind Chill: 58°   Ceiling: Unl
Heat Index: 58°   Visibility: 10mi
Dew Point: 44°   Wind: 9mph
Humidity: 58%   Direction: 200°SSW
Pressure: 30.08"   Gusts: NA
Location:  41.04°N, 89.23°W
Report Text: KC75 232035Z AUTO 20008KT 10SM SCT090 15/06 A3008 RMK AO2 T01470064
Loading
Personal Weather Stations






























Interactive Weather Map
Tropical Storm Tracking
New forecast layout! Learn more

10-Day Weather Forecast

Advertisements
Track Severe Weather on mobile